createdAt,value
2018-05-15T00:00:57.057Z,1009.47
2018-05-15T00:02:05.685Z,1009.45
2018-05-15T00:03:14.303Z,1009.45
2018-05-15T00:04:22.931Z,1009.44
2018-05-15T00:05:31.825Z,1009.4
2018-05-15T00:06:40.454Z,1009.42
2018-05-15T00:07:49.074Z,1009.44
2018-05-15T00:08:57.699Z,1009.43
2018-05-15T00:10:06.324Z,1009.45
2018-05-15T00:11:14.946Z,1009.41
2018-05-15T00:12:23.569Z,1009.43
2018-05-15T00:13:32.192Z,1009.48
2018-05-15T00:14:40.816Z,1009.45
2018-05-15T00:15:49.439Z,1009.45
2018-05-15T00:16:58.062Z,1009.47
2018-05-15T00:18:06.686Z,1009.46
2018-05-15T00:19:15.311Z,1009.45
2018-05-15T00:20:23.930Z,1009.48
2018-05-15T00:21:32.555Z,1009.48
2018-05-15T00:22:41.177Z,1009.51
2018-05-15T00:23:49.801Z,1009.52
2018-05-15T00:24:58.427Z,1009.52
2018-05-15T00:26:07.051Z,1009.48
2018-05-15T00:27:15.674Z,1009.51
2018-05-15T00:28:24.297Z,1009.54
2018-05-15T00:29:32.920Z,1009.53
2018-05-15T00:30:41.547Z,1009.53
2018-05-15T00:31:50.431Z,1009.55
2018-05-15T00:32:59.059Z,1009.56
2018-05-15T00:34:07.944Z,1009.53
2018-05-15T00:35:16.569Z,1009.6
2018-05-15T00:36:25.455Z,1009.59
2018-05-15T00:37:34.077Z,1009.58
2018-05-15T00:38:42.700Z,1009.61
2018-05-15T00:39:51.325Z,1009.57
2018-05-15T00:40:59.949Z,1009.58
2018-05-15T00:42:08.570Z,1009.58
2018-05-15T00:43:17.192Z,1009.59
2018-05-15T00:44:25.815Z,1009.58
2018-05-15T00:45:34.441Z,1009.59
2018-05-15T00:46:43.064Z,1009.6
2018-05-15T00:47:51.687Z,1009.58
2018-05-15T00:49:00.312Z,1009.65
2018-05-15T00:50:08.940Z,1009.61
2018-05-15T00:51:17.590Z,1009.58
2018-05-15T00:52:26.241Z,1009.62
2018-05-15T00:53:34.879Z,1009.59
2018-05-15T00:54:43.519Z,1009.64
2018-05-15T00:55:52.163Z,1009.64
2018-05-15T00:57:00.808Z,1009.64
2018-05-15T00:58:09.461Z,1009.67
2018-05-15T00:59:18.644Z,1009.67
2018-05-15T01:00:27.293Z,1009.65
2018-05-15T01:01:35.930Z,1009.65
2018-05-15T01:02:44.584Z,1009.68
2018-05-15T01:03:53.226Z,1009.68
2018-05-15T01:05:02.153Z,1009.69
2018-05-15T01:06:11.060Z,1009.66
2018-05-15T01:07:19.714Z,1009.68
2018-05-15T01:08:28.361Z,1009.7
2018-05-15T01:09:37.274Z,1009.66
2018-05-15T01:10:45.911Z,1009.7
2018-05-15T01:11:54.561Z,1009.72
2018-05-15T01:13:03.216Z,1009.66
2018-05-15T01:14:11.864Z,1009.69
2018-05-15T01:15:20.513Z,1009.66
2018-05-15T01:16:29.149Z,1009.65
2018-05-15T01:17:37.804Z,1009.66
2018-05-15T01:18:46.442Z,1009.64
2018-05-15T01:19:55.359Z,1009.63
2018-05-15T01:21:03.999Z,1009.67
2018-05-15T01:22:12.907Z,1009.62
2018-05-15T01:23:21.822Z,1009.66
2018-05-15T01:24:30.467Z,1009.67
2018-05-15T01:25:39.107Z,1009.62
2018-05-15T01:26:47.754Z,1009.65
2018-05-15T01:27:56.403Z,1009.64
2018-05-15T01:29:05.052Z,1009.63
2018-05-15T01:30:13.694Z,1009.65
2018-05-15T01:31:22.342Z,1009.65
2018-05-15T01:32:31.259Z,1009.63
2018-05-15T01:33:39.897Z,1009.68
2018-05-15T01:34:48.543Z,1009.65
2018-05-15T01:35:57.189Z,1009.63
2018-05-15T01:37:05.835Z,1009.66
2018-05-15T01:38:14.477Z,1009.66
2018-05-15T01:39:23.127Z,1009.64
2018-05-15T01:40:31.799Z,1009.68
2018-05-15T01:41:40.420Z,1009.65
2018-05-15T01:42:49.053Z,1009.66
2018-05-15T01:43:57.707Z,1009.66
2018-05-15T01:45:06.348Z,1009.66
2018-05-15T01:46:14.996Z,1009.66
2018-05-15T01:47:23.637Z,1009.63
2018-05-15T01:48:32.284Z,1009.63
2018-05-15T01:49:40.930Z,1009.61
2018-05-15T01:50:49.842Z,1009.63
2018-05-15T01:51:58.492Z,1009.64
2018-05-15T01:53:07.132Z,1009.65
2018-05-15T01:54:16.035Z,1009.66
2018-05-15T01:55:24.685Z,1009.63
2018-05-15T01:56:33.332Z,1009.65
2018-05-15T01:57:41.972Z,1009.64
2018-05-15T01:58:50.617Z,1009.64
2018-05-15T01:59:59.263Z,1009.65
2018-05-15T02:01:07.913Z,1009.64
2018-05-15T02:02:16.634Z,1009.7
2018-05-15T02:03:25.557Z,1009.7
2018-05-15T02:04:34.199Z,1009.67
2018-05-15T02:05:43.114Z,1009.68
2018-05-15T02:06:51.838Z,1009.68
2018-05-15T02:08:00.401Z,1009.69
2018-05-15T02:09:09.045Z,1009.67
2018-05-15T02:10:17.955Z,1009.68
2018-05-15T02:11:26.868Z,1009.67
2018-05-15T02:12:35.514Z,1009.7
2018-05-15T02:13:44.157Z,1009.68
2018-05-15T02:14:52.805Z,1009.65
2018-05-15T02:16:01.450Z,1009.68
2018-05-15T02:17:10.360Z,1009.67
2018-05-15T02:18:19.013Z,1009.66
2018-05-15T02:19:27.655Z,1009.72
2018-05-15T02:20:36.295Z,1009.7
2018-05-15T02:21:44.941Z,1009.72
2018-05-15T02:22:53.583Z,1009.72
2018-05-15T02:24:02.234Z,1009.75
2018-05-15T02:25:10.876Z,1009.75
2018-05-15T02:26:19.531Z,1009.75
2018-05-15T02:27:28.172Z,1009.79
2018-05-15T02:28:37.079Z,1009.82
2018-05-15T02:29:45.723Z,1009.83
2018-05-15T02:30:54.368Z,1009.83
2018-05-15T02:32:03.014Z,1009.87
2018-05-15T02:33:11.657Z,1009.84
2018-05-15T02:34:20.311Z,1009.85
2018-05-15T02:35:28.955Z,1009.88
2018-05-15T02:36:38.141Z,1009.85
2018-05-15T02:37:47.606Z,1009.85
2018-05-15T02:38:56.255Z,1009.84
2018-05-15T02:40:04.883Z,1009.84
2018-05-15T02:41:13.796Z,1009.84
2018-05-15T02:42:22.710Z,1009.83
2018-05-15T02:43:31.352Z,1009.83
2018-05-15T02:44:39.979Z,1009.82
2018-05-15T02:45:48.630Z,1009.84
2018-05-15T02:46:57.822Z,1009.86
2018-05-15T02:48:06.720Z,1009.83
2018-05-15T02:49:15.369Z,1009.85
2018-05-15T02:50:24.012Z,1009.87
2018-05-15T02:51:32.668Z,1009.83
2018-05-15T02:52:41.311Z,1009.85
2018-05-15T02:53:50.229Z,1009.88
2018-05-15T02:54:59.139Z,1009.9
2018-05-15T02:56:07.787Z,1009.84
2018-05-15T02:57:16.408Z,1009.84
2018-05-15T02:58:25.034Z,1009.87
2018-05-15T02:59:33.679Z,1009.9
2018-05-15T03:00:42.332Z,1009.88
2018-05-15T03:01:51.075Z,1009.87
2018-05-15T03:02:59.914Z,1009.9
2018-05-15T03:04:08.941Z,1009.91
2018-05-15T03:05:17.947Z,1009.86
2018-05-15T03:06:26.709Z,1009.9
2018-05-15T03:07:35.622Z,1009.92
2018-05-15T03:08:44.274Z,1009.92
2018-05-15T03:09:52.918Z,1009.94
2018-05-15T03:11:01.842Z,1009.94
2018-05-15T03:12:10.754Z,1009.94
2018-05-15T03:13:19.403Z,1009.94
2018-05-15T03:14:28.311Z,1009.95
2018-05-15T03:15:37.239Z,1010
2018-05-15T03:16:45.881Z,1009.96
2018-05-15T03:17:54.529Z,1009.98
2018-05-15T03:19:03.164Z,1009.95
2018-05-15T03:20:11.814Z,1009.94
2018-05-15T03:21:20.457Z,1009.98
2018-05-15T03:22:29.107Z,1010.02
2018-05-15T03:23:37.754Z,1009.99
2018-05-15T03:24:46.659Z,1010
2018-05-15T03:25:55.306Z,1009.96
2018-05-15T03:27:03.946Z,1009.98
2018-05-15T03:28:12.598Z,1010
2018-05-15T03:29:21.240Z,1009.98
2018-05-15T03:30:29.889Z,1010.02
2018-05-15T03:31:38.824Z,1009.96
2018-05-15T03:32:47.485Z,1009.98
2018-05-15T03:33:56.120Z,1009.97
2018-05-15T03:35:04.765Z,1009.95
2018-05-15T03:36:13.407Z,1009.96
2018-05-15T03:37:22.060Z,1009.97
2018-05-15T03:38:30.705Z,1009.93
2018-05-15T03:39:39.345Z,1009.95
2018-05-15T03:40:47.986Z,1009.89
2018-05-15T03:41:56.628Z,1009.93
2018-05-15T03:43:05.282Z,1009.92
2018-05-15T03:44:14.182Z,1009.94
2018-05-15T03:45:22.831Z,1009.96
2018-05-15T03:46:31.731Z,1009.96
2018-05-15T03:47:40.383Z,1010.01
2018-05-15T03:48:49.027Z,1010
2018-05-15T03:49:57.961Z,1009.99
2018-05-15T03:51:06.594Z,1009.97
2018-05-15T03:52:15.252Z,1010
2018-05-15T03:53:23.891Z,1009.99
2018-05-15T03:54:32.801Z,1010.01
2018-05-15T03:55:41.437Z,1010.05
2018-05-15T03:56:50.082Z,1010.03
2018-05-15T03:57:58.734Z,1010.02
2018-05-15T03:59:07.376Z,1010.06
2018-05-15T04:00:16.023Z,1010.05
2018-05-15T04:01:24.656Z,1010.07
2018-05-15T04:02:33.308Z,1010.08
2018-05-15T04:03:42.217Z,1010.08
2018-05-15T04:04:50.870Z,1010.06
2018-05-15T04:05:59.506Z,1010.05
2018-05-15T04:07:08.154Z,1010.06
2018-05-15T04:08:16.791Z,1010.07
2018-05-15T04:09:25.444Z,1010.08
2018-05-15T04:10:34.377Z,1010.08
2018-05-15T04:11:43.023Z,1010.12
2018-05-15T04:12:51.667Z,1010.14
2018-05-15T04:14:00.370Z,1010.12
2018-05-15T04:15:08.959Z,1010.14
2018-05-15T04:16:17.863Z,1010.18
2018-05-15T04:17:26.504Z,1010.21
2018-05-15T04:18:35.146Z,1010.17
2018-05-15T04:19:44.065Z,1010.19
2018-05-15T04:20:52.709Z,1010.23
2018-05-15T04:22:01.625Z,1010.24
2018-05-15T04:23:10.262Z,1010.25
2018-05-15T04:24:18.914Z,1010.21
2018-05-15T04:25:27.568Z,1010.18
2018-05-15T04:26:36.218Z,1010.2
2018-05-15T04:27:44.856Z,1010.18
2018-05-15T04:28:53.510Z,1010.17
2018-05-15T04:30:02.691Z,1010.22
2018-05-15T04:31:11.337Z,1010.19
2018-05-15T04:32:19.971Z,1010.2
2018-05-15T04:33:28.619Z,1010.21
2018-05-15T04:34:37.262Z,1010.22
2018-05-15T04:35:45.909Z,1010.25
2018-05-15T04:36:54.558Z,1010.23
2018-05-15T04:38:03.186Z,1010.26
2018-05-15T04:39:11.833Z,1010.28
2018-05-15T04:40:20.471Z,1010.28
2018-05-15T04:41:29.397Z,1010.27
2018-05-15T04:42:38.034Z,1010.28
2018-05-15T04:43:46.883Z,1010.31
2018-05-15T04:44:55.320Z,1010.32
2018-05-15T04:46:03.975Z,1010.32
2018-05-15T04:47:12.608Z,1010.33
2018-05-15T04:48:21.258Z,1010.32
2018-05-15T04:49:29.900Z,1010.33
2018-05-15T04:50:38.552Z,1010.3
2018-05-15T04:51:47.193Z,1010.29
2018-05-15T04:52:55.832Z,1010.32
2018-05-15T04:54:04.770Z,1010.33
2018-05-15T04:55:13.410Z,1010.32
2018-05-15T04:56:22.064Z,1010.36
2018-05-15T04:57:30.968Z,1010.37
2018-05-15T04:58:39.880Z,1010.38
2018-05-15T04:59:48.514Z,1010.41
2018-05-15T05:00:57.168Z,1010.41
2018-05-15T05:02:05.866Z,1010.44
2018-05-15T05:03:14.461Z,1010.42
2018-05-15T05:04:23.093Z,1010.45
2018-05-15T05:05:31.744Z,1010.44
2018-05-15T05:06:40.384Z,1010.43
2018-05-15T05:07:49.031Z,1010.45
2018-05-15T05:08:57.669Z,1010.44
2018-05-15T05:10:06.317Z,1010.48
2018-05-15T05:11:14.965Z,1010.48
2018-05-15T05:12:23.611Z,1010.49
2018-05-15T05:13:32.300Z,1010.47
2018-05-15T05:14:40.894Z,1010.52
2018-05-15T05:15:49.539Z,1010.59
2018-05-15T05:16:58.191Z,1010.59
2018-05-15T05:18:07.103Z,1010.55
2018-05-15T05:19:15.746Z,1010.56
2018-05-15T05:20:24.390Z,1010.54
2018-05-15T05:21:33.035Z,1010.56
2018-05-15T05:22:41.684Z,1010.54
2018-05-15T05:23:50.323Z,1010.56
2018-05-15T05:24:59.228Z,1010.56
2018-05-15T05:26:07.869Z,1010.55
2018-05-15T05:27:16.630Z,1010.58
2018-05-15T05:28:25.167Z,1010.55
2018-05-15T05:29:33.812Z,1010.54
2018-05-15T05:30:42.464Z,1010.57
2018-05-15T05:31:51.630Z,1010.54
2018-05-15T05:33:00.277Z,1010.58
2018-05-15T05:34:08.921Z,1010.56
2018-05-15T05:35:17.567Z,1010.55
2018-05-15T05:36:26.210Z,1010.58
2018-05-15T05:37:34.861Z,1010.59
2018-05-15T05:38:43.502Z,1010.63
2018-05-15T05:39:52.148Z,1010.6
2018-05-15T05:41:01.143Z,1010.68
2018-05-15T05:42:09.798Z,1010.68
2018-05-15T05:43:18.437Z,1010.71
2018-05-15T05:44:27.084Z,1010.71
2018-05-15T05:45:35.724Z,1010.72
2018-05-15T05:46:44.374Z,1010.73
2018-05-15T05:47:53.019Z,1010.77
2018-05-15T05:49:01.669Z,1010.76
2018-05-15T05:50:10.312Z,1010.71
2018-05-15T05:51:19.213Z,1010.72
2018-05-15T05:52:27.858Z,1010.72
2018-05-15T05:53:36.769Z,1010.76
2018-05-15T05:54:45.419Z,1010.75
2018-05-15T05:55:54.320Z,1010.72
2018-05-15T05:57:02.968Z,1010.75
2018-05-15T05:58:11.615Z,1010.77
2018-05-15T05:59:20.264Z,1010.77
2018-05-15T06:00:28.905Z,1010.77
2018-05-15T06:01:37.552Z,1010.77
2018-05-15T06:02:46.194Z,1010.83
2018-05-15T06:03:54.844Z,1010.83
2018-05-15T06:05:03.492Z,1010.84
2018-05-15T06:06:12.138Z,1010.86
2018-05-15T06:07:20.789Z,1010.9
2018-05-15T06:08:29.425Z,1010.92
2018-05-15T06:09:38.075Z,1010.95
2018-05-15T06:10:46.720Z,1010.99
2018-05-15T06:11:55.367Z,1010.98
2018-05-15T06:13:04.009Z,1010.98
2018-05-15T06:14:12.944Z,1010.99
2018-05-15T06:15:21.912Z,1010.99
2018-05-15T06:16:30.557Z,1011.01
2018-05-15T06:17:39.213Z,1011
2018-05-15T06:18:47.856Z,1011
2018-05-15T06:19:56.504Z,1010.99
2018-05-15T06:21:05.186Z,1011
2018-05-15T06:22:14.119Z,1011.06
2018-05-15T06:23:22.759Z,1011.06
2018-05-15T06:24:31.407Z,1011.06
2018-05-15T06:25:40.051Z,1011.09
2018-05-15T06:26:48.695Z,1011.11
2018-05-15T06:27:57.343Z,1011.11
2018-05-15T06:29:05.998Z,1011.11
2018-05-15T06:30:14.636Z,1011.1
2018-05-15T06:31:23.278Z,1011.13
2018-05-15T06:32:31.938Z,1011.1
2018-05-15T06:33:40.574Z,1011.11
2018-05-15T06:34:49.219Z,1011.13
2018-05-15T06:35:57.860Z,1011.1
2018-05-15T06:37:06.507Z,1011.14
2018-05-15T06:38:15.159Z,1011.11
2018-05-15T06:39:24.070Z,1011.1
2018-05-15T06:40:32.711Z,1011.07
2018-05-15T06:41:41.360Z,1011.09
2018-05-15T06:42:50.007Z,1011.04
2018-05-15T06:43:58.922Z,1011.06
2018-05-15T06:45:07.570Z,1011.06
2018-05-15T06:46:16.211Z,1011.04
2018-05-15T06:47:24.858Z,1011.07
2018-05-15T06:48:34.306Z,1011.11
2018-05-15T06:49:42.960Z,1011.11
2018-05-15T06:50:51.599Z,1011.09
2018-05-15T06:52:00.252Z,1011.14
2018-05-15T06:53:09.424Z,1011.14
2018-05-15T06:54:18.077Z,1011.14
2018-05-15T06:55:26.721Z,1011.18
2018-05-15T06:56:35.631Z,1011.19
2018-05-15T06:57:44.276Z,1011.21
2018-05-15T06:58:52.927Z,1011.2
2018-05-15T07:00:01.572Z,1011.25
2018-05-15T07:01:10.217Z,1011.22
2018-05-15T07:02:19.122Z,1011.2
2018-05-15T07:03:27.766Z,1011.25
2018-05-15T07:04:36.418Z,1011.21
2018-05-15T07:05:45.067Z,1011.22
2018-05-15T07:06:53.974Z,1011.26
2018-05-15T07:08:02.891Z,1011.19
2018-05-15T07:09:11.543Z,1011.22
2018-05-15T07:10:20.223Z,1011.25
2018-05-15T07:11:29.399Z,1011.26
2018-05-15T07:12:38.283Z,1011.27
2018-05-15T07:13:46.993Z,1011.29
2018-05-15T07:14:55.641Z,1011.3
2018-05-15T07:16:04.287Z,1011.29
2018-05-15T07:17:12.927Z,1011.3
2018-05-15T07:18:21.577Z,1011.29
2018-05-15T07:19:30.552Z,1011.34
2018-05-15T07:20:39.142Z,1011.35
2018-05-15T07:21:47.792Z,1011.38
2018-05-15T07:22:56.431Z,1011.36
2018-05-15T07:24:05.089Z,1011.39
2018-05-15T07:25:13.734Z,1011.42
2018-05-15T07:26:22.395Z,1011.41
2018-05-15T07:27:31.029Z,1011.4
2018-05-15T07:28:39.681Z,1011.4
2018-05-15T07:29:48.327Z,1011.39
2018-05-15T07:30:56.983Z,1011.41
2018-05-15T07:32:05.891Z,1011.39
2018-05-15T07:33:14.658Z,1011.38
2018-05-15T07:34:23.788Z,1011.37
2018-05-15T07:35:32.446Z,1011.35
2018-05-15T07:36:41.093Z,1011.38
2018-05-15T07:37:49.756Z,1011.4
2018-05-15T07:38:58.403Z,1011.41
2018-05-15T07:40:07.310Z,1011.44
2018-05-15T07:41:15.968Z,1011.43
2018-05-15T07:42:24.622Z,1011.41
2018-05-15T07:43:33.276Z,1011.42
2018-05-15T07:44:42.185Z,1011.42
2018-05-15T07:45:50.837Z,1011.44
2018-05-15T07:46:59.483Z,1011.4
2018-05-15T07:48:08.157Z,1011.36
2018-05-15T07:49:17.443Z,1011.41
2018-05-15T07:50:26.371Z,1011.43
2018-05-15T07:51:35.276Z,1011.42
2018-05-15T07:52:43.927Z,1011.45
2018-05-15T07:53:52.565Z,1011.41
2018-05-15T07:55:01.219Z,1011.43
2018-05-15T07:56:09.872Z,1011.41
2018-05-15T07:57:18.790Z,1011.43
2018-05-15T07:58:27.440Z,1011.46
2018-05-15T07:59:36.082Z,1011.46
2018-05-15T08:00:44.729Z,1011.49
2018-05-15T08:01:53.382Z,1011.53
2018-05-15T08:03:02.415Z,1011.5
2018-05-15T08:04:11.061Z,1011.52
2018-05-15T08:05:19.767Z,1011.53
2018-05-15T08:06:28.419Z,1011.56
2018-05-15T08:07:37.070Z,1011.58
2018-05-15T08:08:45.714Z,1011.52
2018-05-15T08:09:54.703Z,1011.56
2018-05-15T08:11:03.354Z,1011.57
2018-05-15T08:12:12.007Z,1011.56
2018-05-15T08:13:20.652Z,1011.57
2018-05-15T08:14:29.301Z,1011.53
2018-05-15T08:15:37.949Z,1011.54
2018-05-15T08:16:46.592Z,1011.54
2018-05-15T08:17:55.514Z,1011.57
2018-05-15T08:19:04.165Z,1011.6
2018-05-15T08:20:12.812Z,1011.62
2018-05-15T08:21:21.454Z,1011.61
2018-05-15T08:22:30.131Z,1011.64
2018-05-15T08:23:38.765Z,1011.67
2018-05-15T08:24:47.413Z,1011.7
2018-05-15T08:25:56.060Z,1011.71
2018-05-15T08:27:04.716Z,1011.7
2018-05-15T08:28:13.366Z,1011.69
2018-05-15T08:29:22.017Z,1011.72
2018-05-15T08:30:30.930Z,1011.76
2018-05-15T08:31:39.888Z,1011.75
2018-05-15T08:32:48.539Z,1011.75
2018-05-15T08:33:57.459Z,1011.75
2018-05-15T08:35:06.120Z,1011.74
2018-05-15T08:36:14.761Z,1011.78
2018-05-15T08:37:23.512Z,1011.78
2018-05-15T08:38:32.457Z,1011.78
2018-05-15T08:39:41.115Z,1011.78
2018-05-15T08:40:50.028Z,1011.77
2018-05-15T08:41:58.944Z,1011.74
2018-05-15T08:43:07.593Z,1011.76
2018-05-15T08:44:16.248Z,1011.79
2018-05-15T08:45:24.958Z,1011.78
2018-05-15T08:46:33.551Z,1011.77
2018-05-15T08:47:42.198Z,1011.81
2018-05-15T08:48:50.851Z,1011.75
2018-05-15T08:49:59.499Z,1011.75
2018-05-15T08:51:08.147Z,1011.74
2018-05-15T08:52:16.795Z,1011.73
2018-05-15T08:53:25.446Z,1011.72
2018-05-15T08:54:34.363Z,1011.74
2018-05-15T08:55:43.014Z,1011.71
2018-05-15T08:56:51.927Z,1011.72
2018-05-15T08:58:00.576Z,1011.72
2018-05-15T08:59:09.236Z,1011.74
2018-05-15T09:00:17.883Z,1011.7
2018-05-15T09:01:26.533Z,1011.79
2018-05-15T09:02:35.185Z,1011.77
2018-05-15T09:03:43.838Z,1011.72
2018-05-15T09:04:52.483Z,1011.74
2018-05-15T09:06:01.136Z,1011.72
2018-05-15T09:07:09.787Z,1011.72
2018-05-15T09:08:18.438Z,1011.75
2018-05-15T09:09:27.087Z,1011.72
2018-05-15T09:10:35.742Z,1011.72
2018-05-15T09:11:44.394Z,1011.73
2018-05-15T09:12:53.309Z,1011.66
2018-05-15T09:14:01.966Z,1011.66
2018-05-15T09:15:10.876Z,1011.67
2018-05-15T09:16:19.536Z,1011.65
2018-05-15T09:17:28.177Z,1011.63
2018-05-15T09:18:36.836Z,1011.62
2018-05-15T09:19:45.484Z,1011.59
2018-05-15T09:20:54.144Z,1011.63
2018-05-15T09:22:03.051Z,1011.59
2018-05-15T09:23:11.984Z,1011.66
2018-05-15T09:24:20.898Z,1011.67
2018-05-15T09:25:29.557Z,1011.6
2018-05-15T09:26:38.206Z,1011.64
2018-05-15T09:27:46.862Z,1011.65
2018-05-15T09:28:55.506Z,1011.61
2018-05-15T09:30:04.153Z,1011.59
2018-05-15T09:31:13.083Z,1011.61
2018-05-15T09:32:21.732Z,1011.56
2018-05-15T09:33:30.386Z,1011.58
2018-05-15T09:34:39.299Z,1011.59
2018-05-15T09:35:48.223Z,1011.6
2018-05-15T09:36:56.871Z,1011.6
2018-05-15T09:38:05.788Z,1011.59
2018-05-15T09:39:14.432Z,1011.62
2018-05-15T09:40:23.091Z,1011.61
2018-05-15T09:41:31.741Z,1011.62
2018-05-15T09:42:40.660Z,1011.59
2018-05-15T09:43:49.306Z,1011.58
2018-05-15T09:44:57.957Z,1011.55
2018-05-15T09:46:06.876Z,1011.62
2018-05-15T09:47:15.528Z,1011.66
2018-05-15T09:48:24.189Z,1011.62
2018-05-15T09:49:33.096Z,1011.66
2018-05-15T09:50:41.751Z,1011.67
2018-05-15T09:51:50.396Z,1011.68
2018-05-15T09:52:59.056Z,1011.71
2018-05-15T09:54:07.695Z,1011.7
2018-05-15T09:55:16.347Z,1011.7
2018-05-15T09:56:24.994Z,1011.73
2018-05-15T09:57:33.656Z,1011.69
2018-05-15T09:58:42.560Z,1011.66
2018-05-15T09:59:51.215Z,1011.71
2018-05-15T10:00:59.863Z,1011.64
2018-05-15T10:02:08.522Z,1011.69
2018-05-15T10:03:17.171Z,1011.69
2018-05-15T10:04:25.821Z,1011.65
2018-05-15T10:05:34.466Z,1011.68
2018-05-15T10:06:43.118Z,1011.67
2018-05-15T10:07:51.887Z,1011.7
2018-05-15T10:09:00.811Z,1011.7
2018-05-15T10:10:09.459Z,1011.73
2018-05-15T10:11:18.119Z,1011.75
2018-05-15T10:12:26.761Z,1011.75
2018-05-15T10:13:35.416Z,1011.74
2018-05-15T10:14:44.064Z,1011.76
2018-05-15T10:15:52.727Z,1011.69
2018-05-15T10:17:01.375Z,1011.72
2018-05-15T10:18:10.034Z,1011.74
2018-05-15T10:19:18.950Z,1011.73
2018-05-15T10:20:27.625Z,1011.7
2018-05-15T10:21:36.267Z,1011.73
2018-05-15T10:22:44.908Z,1011.64
2018-05-15T10:23:53.561Z,1011.7
2018-05-15T10:25:02.209Z,1011.65
2018-05-15T10:26:10.870Z,1011.7
2018-05-15T10:27:19.517Z,1011.6
2018-05-15T10:28:28.174Z,1011.57
2018-05-15T10:29:36.817Z,1011.62
2018-05-15T10:30:45.481Z,1011.61
2018-05-15T10:31:54.132Z,1011.6
2018-05-15T10:33:03.053Z,1011.62
2018-05-15T10:34:11.695Z,1011.6
2018-05-15T10:35:20.355Z,1011.57
2018-05-15T10:36:29.008Z,1011.58
2018-05-15T10:37:37.664Z,1011.56
2018-05-15T10:38:46.312Z,1011.54
2018-05-15T10:39:54.960Z,1011.54
2018-05-15T10:41:03.886Z,1011.57
2018-05-15T10:42:12.539Z,1011.54
2018-05-15T10:43:21.194Z,1011.53
2018-05-15T10:44:30.103Z,1011.55
2018-05-15T10:45:38.758Z,1011.55
2018-05-15T10:46:47.405Z,1011.64
2018-05-15T10:47:56.353Z,1011.62
2018-05-15T10:49:05.265Z,1011.63
2018-05-15T10:50:14.187Z,1011.62
2018-05-15T10:51:22.838Z,1011.6
2018-05-15T10:52:31.498Z,1011.66
2018-05-15T10:53:40.136Z,1011.61
2018-05-15T10:54:48.795Z,1011.64
2018-05-15T10:55:57.444Z,1011.61
2018-05-15T10:57:06.105Z,1011.65
2018-05-15T10:58:14.755Z,1011.61
2018-05-15T10:59:23.696Z,1011.6
2018-05-15T11:00:32.317Z,1011.57
2018-05-15T11:01:40.968Z,1011.62
2018-05-15T11:02:49.629Z,1011.62
2018-05-15T11:03:58.274Z,1011.59
2018-05-15T11:05:07.196Z,1011.56
2018-05-15T11:06:16.166Z,1011.54
2018-05-15T11:07:24.761Z,1011.56
2018-05-15T11:08:33.411Z,1011.55
2018-05-15T11:09:42.063Z,1011.55
2018-05-15T11:10:50.978Z,1011.52
2018-05-15T11:11:59.634Z,1011.53
2018-05-15T11:13:08.284Z,1011.53
2018-05-15T11:14:16.939Z,1011.51
2018-05-15T11:15:25.588Z,1011.47
2018-05-15T11:16:34.242Z,1011.49
2018-05-15T11:17:42.900Z,1011.47
2018-05-15T11:18:51.554Z,1011.49
2018-05-15T11:20:00.214Z,1011.5
2018-05-15T11:21:08.865Z,1011.5
2018-05-15T11:22:17.519Z,1011.51
2018-05-15T11:23:26.436Z,1011.5
2018-05-15T11:24:35.394Z,1011.52
2018-05-15T11:25:44.334Z,1011.48
2018-05-15T11:26:52.979Z,1011.46
2018-05-15T11:28:01.633Z,1011.48
2018-05-15T11:29:10.291Z,1011.52
2018-05-15T11:30:18.942Z,1011.51
2018-05-15T11:31:27.905Z,1011.52
2018-05-15T11:32:36.554Z,1011.56
2018-05-15T11:33:45.480Z,1011.56
2018-05-15T11:34:54.127Z,1011.55
2018-05-15T11:36:02.920Z,1011.51
2018-05-15T11:37:11.433Z,1011.5
2018-05-15T11:38:20.079Z,1011.54
2018-05-15T11:39:28.735Z,1011.53
2018-05-15T11:40:37.392Z,1011.48
2018-05-15T11:41:46.136Z,1011.45
2018-05-15T11:42:54.967Z,1011.51
2018-05-15T11:44:03.629Z,1011.49
2018-05-15T11:45:12.545Z,1011.5
2018-05-15T11:46:21.200Z,1011.53
2018-05-15T11:47:30.274Z,1011.48
2018-05-15T11:48:39.647Z,1011.54
2018-05-15T11:49:48.864Z,1011.62
2018-05-15T11:50:59.441Z,1011.49
2018-05-15T11:52:07.703Z,1011.58
2018-05-15T11:53:18.314Z,1011.53
2018-05-15T11:54:26.404Z,1011.55
2018-05-15T11:55:35.291Z,1011.46
2018-05-15T11:56:43.714Z,1011.52
2018-05-15T11:57:52.394Z,1011.49
2018-05-15T11:59:01.016Z,1011.46
2018-05-15T12:00:09.700Z,1011.45
2018-05-15T12:01:18.718Z,1011.43
2018-05-15T12:02:27.480Z,1011.43
2018-05-15T12:03:36.017Z,1011.42
2018-05-15T12:04:44.668Z,1011.4
2018-05-15T12:05:53.318Z,1011.39
2018-05-15T12:07:01.982Z,1011.38
2018-05-15T12:08:10.803Z,1011.37
2018-05-15T12:09:19.399Z,1011.47
2018-05-15T12:10:28.046Z,1011.39
2018-05-15T12:11:36.697Z,1011.43
2018-05-15T12:12:45.418Z,1011.43
2018-05-15T12:13:54.009Z,1011.39
2018-05-15T12:15:02.698Z,1011.4
2018-05-15T12:16:12.050Z,1011.37
2018-05-15T12:17:20.655Z,1011.37
2018-05-15T12:18:30.052Z,1011.36
2018-05-15T12:19:39.314Z,1011.32
2018-05-15T12:20:47.989Z,1011.35
2018-05-15T12:21:56.912Z,1011.34
2018-05-15T12:23:05.566Z,1011.33
2018-05-15T12:24:14.229Z,1011.33
2018-05-15T12:25:22.872Z,1011.33
2018-05-15T12:26:31.527Z,1011.3
2018-05-15T12:27:40.176Z,1011.26
2018-05-15T12:28:48.837Z,1011.28
2018-05-15T12:29:57.539Z,1011.25
2018-05-15T12:31:06.135Z,1011.26
2018-05-15T12:32:15.106Z,1011.24
2018-05-15T12:33:23.763Z,1011.23
2018-05-15T12:34:32.420Z,1011.24
2018-05-15T12:35:41.168Z,1011.27
2018-05-15T12:36:49.868Z,1011.24
2018-05-15T12:37:58.512Z,1011.25
2018-05-15T12:39:07.175Z,1011.25
2018-05-15T12:40:16.091Z,1011.17
2018-05-15T12:41:25.067Z,1011.23
2018-05-15T12:42:34.061Z,1011.17
2018-05-15T12:43:42.724Z,1011.21
2018-05-15T12:44:51.638Z,1011.17
2018-05-15T12:46:00.565Z,1011.23
2018-05-15T12:47:09.208Z,1011.2
2018-05-15T12:48:17.936Z,1011.18
2018-05-15T12:49:26.529Z,1011.18
2018-05-15T12:50:35.186Z,1011.19
2018-05-15T12:51:43.842Z,1011.11
2018-05-15T12:52:52.491Z,1011.14
2018-05-15T12:54:01.230Z,1011.14
2018-05-15T12:55:09.800Z,1011.16
2018-05-15T12:56:18.463Z,1011.13
2018-05-15T12:57:27.107Z,1011.08
2018-05-15T12:58:36.031Z,1011.07
2018-05-15T12:59:44.681Z,1011.06
2018-05-15T13:00:53.343Z,1011.13
2018-05-15T13:02:01.992Z,1011.07
2018-05-15T13:03:10.933Z,1011.09
2018-05-15T13:04:19.589Z,1011.14
2018-05-15T13:05:28.242Z,1011.07
2018-05-15T13:06:36.898Z,1011.09
2018-05-15T13:07:45.546Z,1011.07
2018-05-15T13:08:54.198Z,1011.1
2018-05-15T13:10:02.850Z,1011
2018-05-15T13:11:11.507Z,1011.05
2018-05-15T13:12:20.159Z,1011
2018-05-15T13:13:28.814Z,1011.01
2018-05-15T13:14:37.463Z,1010.98
2018-05-15T13:15:46.125Z,1010.98
2018-05-15T13:16:55.042Z,1010.96
2018-05-15T13:18:03.697Z,1010.97
2018-05-15T13:19:12.355Z,1010.97
2018-05-15T13:20:21.011Z,1010.97
2018-05-15T13:21:29.692Z,1010.93
2018-05-15T13:22:38.943Z,1010.96
2018-05-15T13:23:47.854Z,1010.93
2018-05-15T13:24:56.513Z,1010.94
2018-05-15T13:26:05.166Z,1010.93
2018-05-15T13:27:13.821Z,1010.86
2018-05-15T13:28:22.476Z,1010.88
2018-05-15T13:29:31.146Z,1010.81
2018-05-15T13:30:39.785Z,1010.82
2018-05-15T13:31:48.442Z,1010.84
2018-05-15T13:32:57.098Z,1010.85
2018-05-15T13:34:05.745Z,1010.82
2018-05-15T13:35:15.140Z,1010.8
2018-05-15T13:36:23.786Z,1010.77
2018-05-15T13:37:32.443Z,1010.73
2018-05-15T13:38:41.090Z,1010.72
2018-05-15T13:39:49.751Z,1010.7
2018-05-15T13:40:58.682Z,1010.69
2018-05-15T13:42:07.703Z,1010.68
2018-05-15T13:43:16.354Z,1010.68
2018-05-15T13:44:25.000Z,1010.7
2018-05-15T13:45:33.654Z,1010.68
2018-05-15T13:46:42.839Z,1010.66
2018-05-15T13:47:51.503Z,1010.71
2018-05-15T13:49:00.421Z,1010.64
2018-05-15T13:50:09.075Z,1010.68
2018-05-15T13:51:17.723Z,1010.6
2018-05-15T13:52:26.384Z,1010.58
2018-05-15T13:53:35.127Z,1010.54
2018-05-15T13:54:43.689Z,1010.54